Prospero — LG5095 — position and weather

sailwx.info

Track history (hours):
 
Tides and Currents Weather Stations Pressure Air Temp Water Temp Dewpoint Dewpoint Depression Visibility Wind Speed Wind Dir Waves Ship Positions

Prospero

Last reported at 2017-Sep-25 15:13 UTC. Time now 2017-Oct-20 07:22 UTC.
Position N 39°15' E 003°02'.
Warning: this ship's position is 24 days out of date.

Length 10 m.

Type: Sailing vessel. MMSI: 258083750.

Date/timePositionNaut miles runAvg speedWind from/ knotsBaromVisibWave heightAir tempDewpointWater temp
2017-Sep-25 15:13N 39°15' E 003°02'2 6.4
2017-Sep-25 14:50N 39°16' E 002°59'4 6.5
2017-Sep-25 14:15N 39°18' E 002°55'2 6.1
2017-Sep-25 13:58N 39°19' E 002°53'3 6.0
2017-Sep-25 13:30N 39°20' E 002°50'4 6.1
2017-Sep-25 12:49N 39°22' E 002°45'2 5.9
2017-Sep-25 12:30N 39°23' E 002°43'3 6.1
2017-Sep-25 12:00N 39°24' E 002°39'3 6.0
2017-Sep-25 11:30N 39°26' E 002°36'3 5.5
2017-Sep-25 11:00N 39°28' E 002°33'  
2017-Sep-21 15:26N 39°33' E 002°36'0 0.3
2017-Sep-21 15:00N 39°33' E 002°36'2 4.7
2017-Sep-21 14:30N 39°31' E 002°35'2 4.5
2017-Sep-21 14:00N 39°29' E 002°33'1 0.1
2017-Sep-20 17:39N 39°28' E 002°32'1 3.3
2017-Sep-20 17:30N 39°28' E 002°32'3 5.7
2017-Sep-20 16:59N 39°25' E 002°30'3 6.0
2017-Sep-20 16:29N 39°23' E 002°27'4 6.3
2017-Sep-20 15:52N 39°21' E 002°23'3 6.5
2017-Sep-20 15:27N 39°19' E 002°20'  
2017-Sep-16 14:33N 38°55' E 001°27'0 0.0
2017-Sep-16 14:30N 38°55' E 001°27'0 0.0
2017-Sep-16 14:00N 38°55' E 001°27'2 3.0
2017-Sep-16 13:30N 38°53' E 001°27'  
Track history (hours):
 
Tides and Currents Weather Stations Pressure Air Temp Water Temp Dewpoint Dewpoint Depression Visibility Wind Speed Wind Dir Waves Ship Positions

Prospero

Last reported at 2017-Sep-25 15:13 UTC. Time now 2017-Oct-20 07:22 UTC.
Position N 39°15' E 003°02'.
Warning: this ship's position is 24 days out of date.

Length 10 m.

Type: Sailing vessel. MMSI: 258083750.

Date/timePositionNaut miles runAvg speedWind from/ knotsBaromVisibWave heightAir tempDewpointWater temp
2017-Sep-25 15:13N 39°15' E 003°02'2 6.4
2017-Sep-25 14:50N 39°16' E 002°59'4 6.5
2017-Sep-25 14:15N 39°18' E 002°55'2 6.1
2017-Sep-25 13:58N 39°19' E 002°53'3 6.0
2017-Sep-25 13:30N 39°20' E 002°50'4 6.1
2017-Sep-25 12:49N 39°22' E 002°45'2 5.9
2017-Sep-25 12:30N 39°23' E 002°43'3 6.1
2017-Sep-25 12:00N 39°24' E 002°39'3 6.0
2017-Sep-25 11:30N 39°26' E 002°36'3 5.5
2017-Sep-25 11:00N 39°28' E 002°33'  
2017-Sep-21 15:26N 39°33' E 002°36'0 0.3
2017-Sep-21 15:00N 39°33' E 002°36'2 4.7
2017-Sep-21 14:30N 39°31' E 002°35'2 4.5
2017-Sep-21 14:00N 39°29' E 002°33'1 0.1
2017-Sep-20 17:39N 39°28' E 002°32'1 3.3
2017-Sep-20 17:30N 39°28' E 002°32'3 5.7
2017-Sep-20 16:59N 39°25' E 002°30'3 6.0
2017-Sep-20 16:29N 39°23' E 002°27'4 6.3
2017-Sep-20 15:52N 39°21' E 002°23'3 6.5
2017-Sep-20 15:27N 39°19' E 002°20'  
2017-Sep-16 14:33N 38°55' E 001°27'0 0.0
2017-Sep-16 14:30N 38°55' E 001°27'0 0.0
2017-Sep-16 14:00N 38°55' E 001°27'2 3.0
2017-Sep-16 13:30N 38°53' E 001°27'  

Dump ship's entire track history